Terminal Aerodrome Forecast
Issued by NWS Wilmington, NC

Home | Current Version | Previous Version | Text Only | Print | Product List | Glossary On
Versions: 1 2 3 4 5 6 7 8 9 10 11 12 13 14 15 16 17 18 19 20 21 22
829
FTUS42 KILM 261722
TAFFLO
TAF
KFLO 261722Z 2618/2718 13005KT P6SM VCSH SCT025 BKN050
     FM270100 VRB03KT P6SM SCT020 BKN200
     FM270900 VRB02KT 1SM BR OVC200
     FM271400 35004KT P6SM BKN250=

USA.gov is the U.S. government's official web portal to all federal, state and local government web resources and services.